Login

Current METAR

KOGD 210853Z AUTO 34008KT 10SM SCT055 M03/M07 A3000 RMK AO2 SLP174 T10331072 53011